Time;durP1;ratioP1;P1;durP2;ratioP2;P2;SDS_P1;SDS_P2;PMS_P1;PMS_P2;Temp;Humidity;BMP_temperature;BMP_pressure;BME280_temperature;BME280_humidity;BME280_pressure;Samples;Min_cycle;Max_cycle;Signal;HPM_P1;HPM_P2
2020/12/15 00:00:37;;;;;;;0.35;0.35;;;11.80;99.90;;;;;;5074645;28;20238;-76
2020/12/15 00:03:03;;;;;;;7.20;1.05;;;11.90;99.90;;;;;;5056466;28;20660;-76
2020/12/15 00:05:28;;;;;;;0.50;0.40;;;12.10;99.90;;;;;;5074602;28;20202;-76
2020/12/15 00:07:54;;;;;;;1.30;0.95;;;12.00;99.90;;;;;;5056454;28;20169;-76
2020/12/15 00:10:19;;;;;;;2.38;0.40;;;11.80;99.90;;;;;;5074366;28;20614;-76
2020/12/15 00:12:45;;;;;;;5.65;1.25;;;11.80;99.90;;;;;;5074339;28;20660;-76
2020/12/15 00:15:11;;;;;;;0.43;0.43;;;11.50;99.90;;;;;;5074075;28;20645;-76
2020/12/15 00:17:36;;;;;;;0.30;0.30;;;11.70;99.90;;;;;;5074269;28;20660;-76
2020/12/15 00:20:07;;;;;;;0.22;0.22;;;11.60;99.90;;;;;;5074172;28;20701;-76
2020/12/15 00:22:34;;;;;;;0.80;0.80;;;11.60;99.90;;;;;;5073453;28;20191;-76
2020/12/15 00:25:00;;;;;;;1.17;0.55;;;11.60;99.90;;;;;;5074248;28;20285;-76
2020/12/15 00:27:25;;;;;;;0.40;0.40;;;11.60;99.90;;;;;;5074259;28;20566;-76
2020/12/15 00:29:51;;;;;;;3.60;1.38;;;11.60;99.90;;;;;;5073997;28;20253;-75
2020/12/15 00:32:16;;;;;;;0.20;0.20;;;11.70;99.90;;;;;;5073972;28;20167;-77
2020/12/15 00:34:42;;;;;;;0.20;0.20;;;11.80;99.90;;;;;;5073629;28;20236;-76
2020/12/15 00:37:08;;;;;;;0.32;0.32;;;11.70;99.90;;;;;;5073957;28;20169;-77
2020/12/15 00:39:34;;;;;;;0.25;0.25;;;11.80;99.90;;;;;;5073693;28;20166;-75
2020/12/15 00:41:59;;;;;;;0.20;0.20;;;11.80;99.90;;;;;;5073849;28;20159;-76
2020/12/15 00:44:25;;;;;;;0.68;0.25;;;11.60;99.90;;;;;;5073733;28;20201;-76
2020/12/15 00:46:50;;;;;;;1.17;0.80;;;11.70;99.90;;;;;;5073635;28;20216;-76
2020/12/15 00:49:17;;;;;;;0.40;0.40;;;11.80;99.90;;;;;;5073701;28;20166;-76
2020/12/15 00:51:42;;;;;;;0.40;0.40;;;11.90;99.90;;;;;;5073458;28;20169;-77
2020/12/15 00:54:08;;;;;;;0.95;0.95;;;12.10;99.90;;;;;;5073514;28;20178;-76
2020/12/15 00:56:34;;;;;;;0.60;0.50;;;12.00;99.90;;;;;;5055634;28;20648;-76
2020/12/15 00:58:59;;;;;;;0.25;0.25;;;12.00;99.90;;;;;;5073437;28;20174;-76
2020/12/15 01:01:25;;;;;;;0.88;0.82;;;12.00;99.90;;;;;;5073436;28;20159;-76
2020/12/15 01:03:50;;;;;;;0.55;0.55;;;11.90;99.90;;;;;;5073506;28;20205;-76
2020/12/15 01:06:16;;;;;;;0.40;0.40;;;11.80;99.90;;;;;;5055400;28;20174;-76
2020/12/15 01:08:42;;;;;;;0.32;0.32;;;11.60;99.90;;;;;;5073488;28;20178;-76
2020/12/15 01:11:07;;;;;;;4.10;1.23;;;11.60;99.90;;;;;;5073339;28;20155;-76
2020/12/15 01:13:33;;;;;;;1.10;0.73;;;11.60;99.90;;;;;;5055306;28;20162;-76
2020/12/15 01:16:04;;;;;;;0.57;0.25;;;11.70;99.90;;;;;;5073216;28;20166;-76
2020/12/15 01:18:31;;;;;;;0.65;0.65;;;11.60;99.90;;;;;;5073184;28;20529;-77
2020/12/15 01:20:56;;;;;;;0.25;0.25;;;11.70;99.90;;;;;;5073245;28;20158;-76
2020/12/15 01:23:22;;;;;;;0.57;0.57;;;11.70;99.90;;;;;;5072900;28;20194;-76
2020/12/15 01:25:47;;;;;;;0.63;0.63;;;11.70;99.90;;;;;;5073119;28;20170;-76
2020/12/15 01:28:13;;;;;;;4.28;1.70;;;11.80;99.90;;;;;;5073022;28;20194;-76
2020/12/15 01:30:39;;;;;;;0.50;0.50;;;12.00;99.90;;;;;;5073142;28;20158;-76
2020/12/15 01:33:04;;;;;;;0.40;0.40;;;11.80;99.90;;;;;;5072479;28;20491;-76
2020/12/15 01:35:30;;;;;;;0.65;0.50;;;11.90;99.90;;;;;;5072536;28;20350;-76
2020/12/15 01:37:55;;;;;;;0.43;0.43;;;11.70;99.90;;;;;;5073041;28;20169;-75
2020/12/15 01:40:21;;;;;;;1.58;0.65;;;11.80;99.90;;;;;;5073029;28;20556;-76
2020/12/15 01:42:46;;;;;;;0.40;0.40;;;11.80;99.90;;;;;;5072939;28;20506;-76
2020/12/15 01:45:12;;;;;;;0.30;0.30;;;11.90;99.90;;;;;;5072871;28;20228;-77
2020/12/15 01:47:38;;;;;;;0.55;0.55;;;11.90;99.90;;;;;;5072983;28;20234;-75
2020/12/15 01:50:04;;;;;;;0.52;0.52;;;11.90;99.90;;;;;;5072911;28;20158;-76
2020/12/15 01:52:30;;;;;;;0.43;0.43;;;12.00;99.90;;;;;;5072879;28;20174;-75
2020/12/15 01:54:56;;;;;;;0.20;0.20;;;11.90;99.90;;;;;;5072707;28;20188;-76
2020/12/15 01:57:22;;;;;;;0.68;0.68;;;11.70;99.90;;;;;;5072840;28;20151;-76
2020/12/15 01:59:47;;;;;;;0.40;0.40;;;11.80;99.90;;;;;;5072808;28;20167;-75
2020/12/15 02:02:13;;;;;;;0.75;0.75;;;11.90;99.90;;;;;;5072629;28;20224;-76
2020/12/15 02:04:39;;;;;;;0.55;0.43;;;12.00;99.90;;;;;;5073092;28;20269;-76
2020/12/15 02:07:04;;;;;;;0.40;0.40;;;12.00;99.90;;;;;;5072660;28;20622;-75
2020/12/15 02:09:30;;;;;;;0.32;0.32;;;11.90;99.90;;;;;;5072813;28;20592;-76
2020/12/15 02:11:57;;;;;;;0.30;0.30;;;11.90;99.90;;;;;;5072824;28;20630;-75
2020/12/15 02:14:22;;;;;;;16.67;1.05;;;12.00;99.90;;;;;;5072532;28;20186;-76
2020/12/15 02:16:50;;;;;;;0.30;0.30;;;11.90;99.90;;;;;;5072628;28;20507;-76
2020/12/15 02:19:17;;;;;;;0.60;0.60;;;12.00;99.90;;;;;;5072607;28;20213;-76
2020/12/15 02:21:51;;;;;;;4.15;0.65;;;12.10;99.90;;;;;;5072567;28;20167;-76
2020/12/15 02:24:16;;;;;;;0.30;0.30;;;12.10;99.90;;;;;;5072370;28;20206;-76
2020/12/15 02:26:42;;;;;;;0.95;0.60;;;12.10;99.90;;;;;;5072625;28;20524;-75
2020/12/15 02:29:08;;;;;;;0.55;0.55;;;12.10;99.90;;;;;;5072513;28;20618;-76
2020/12/15 02:31:34;;;;;;;0.20;0.20;;;12.10;99.90;;;;;;5072432;28;20280;-75
2020/12/15 02:33:59;;;;;;;0.30;0.30;;;12.10;99.90;;;;;;5072265;28;20218;-76
2020/12/15 02:36:28;;;;;;;0.28;0.28;;;12.00;99.90;;;;;;5072429;28;20319;-77
2020/12/15 02:38:54;;;;;;;0.50;0.50;;;12.10;99.90;;;;;;5072544;28;20173;-77
2020/12/15 02:41:20;;;;;;;0.30;0.30;;;12.00;99.90;;;;;;5072451;28;20158;-77
2020/12/15 02:43:45;;;;;;;1.40;0.63;;;12.00;99.90;;;;;;5072295;28;20565;-76
2020/12/15 02:46:11;;;;;;;0.15;0.15;;;11.90;99.90;;;;;;5074873;28;20193;-77
2020/12/15 02:48:36;;;;;;;1.73;0.28;;;12.00;99.90;;;;;;5076027;28;20246;-76
2020/12/15 02:51:02;;;;;;;0.63;0.63;;;12.10;99.90;;;;;;5075937;28;20699;-75
2020/12/15 02:53:27;;;;;;;0.57;0.57;;;12.30;99.90;;;;;;5075763;28;20264;-77
2020/12/15 02:55:53;;;;;;;2.20;0.88;;;12.30;99.90;;;;;;5075748;28;20163;-75
2020/12/15 02:58:18;;;;;;;3.70;1.30;;;12.10;99.90;;;;;;5075835;28;20193;-77
2020/12/15 03:00:44;;;;;;;0.70;0.70;;;12.30;99.90;;;;;;5075773;28;20155;-77
2020/12/15 03:03:09;;;;;;;0.45;0.43;;;12.30;99.90;;;;;;5075480;28;20560;-75
2020/12/15 03:05:35;;;;;;;0.73;0.73;;;12.20;99.90;;;;;;5075549;28;20198;-76
2020/12/15 03:08:01;;;;;;;0.68;0.63;;;12.10;99.90;;;;;;5075597;28;20245;-75
2020/12/15 03:10:27;;;;;;;0.60;0.60;;;12.20;99.90;;;;;;5057742;28;20209;-77
2020/12/15 03:12:52;;;;;;;0.52;0.50;;;12.20;99.90;;;;;;5075500;28;20216;-76
2020/12/15 03:15:18;;;;;;;0.38;0.38;;;12.20;99.90;;;;;;5075363;28;20202;-77
2020/12/15 03:17:44;;;;;;;0.50;0.50;;;12.20;99.90;;;;;;5075518;28;20208;-75
2020/12/15 03:20:10;;;;;;;1.95;1.10;;;12.00;99.90;;;;;;5075315;28;20232;-75
2020/12/15 03:22:36;;;;;;;0.73;0.73;;;12.00;99.90;;;;;;5075270;28;20226;-77
2020/12/15 03:25:01;;;;;;;0.30;0.30;;;11.90;99.90;;;;;;5075220;28;20214;-76
2020/12/15 03:27:27;;;;;;;0.47;0.47;;;12.10;99.90;;;;;;5075260;28;20169;-75
2020/12/15 03:29:52;;;;;;;0.47;0.47;;;12.00;99.90;;;;;;5075219;28;20228;-76
2020/12/15 03:32:18;;;;;;;0.40;0.40;;;12.10;99.90;;;;;;5075206;28;20166;-76
2020/12/15 03:34:44;;;;;;;1.20;0.73;;;12.10;99.90;;;;;;5074853;28;20222;-75
2020/12/15 03:37:09;;;;;;;0.75;0.75;;;11.90;99.90;;;;;;5075206;28;20206;-75
2020/12/15 03:39:35;;;;;;;0.10;0.10;;;12.10;99.90;;;;;;5074939;28;20174;-76
2020/12/15 03:42:01;;;;;;;0.40;0.40;;;12.00;99.90;;;;;;5074918;28;20186;-75
2020/12/15 03:44:27;;;;;;;0.30;0.30;;;11.90;99.90;;;;;;5074870;28;20210;-76
2020/12/15 03:46:52;;;;;;;0.50;0.50;;;11.90;99.90;;;;;;5074877;28;20641;-75
2020/12/15 03:49:18;;;;;;;2.42;0.65;;;12.00;99.90;;;;;;5074860;28;20181;-76
2020/12/15 03:51:43;;;;;;;0.60;0.60;;;12.10;99.90;;;;;;5074715;28;20168;-75
2020/12/15 03:54:09;;;;;;;0.85;0.85;;;12.00;99.90;;;;;;5074740;28;20203;-78
2020/12/15 03:56:34;;;;;;;0.52;0.52;;;12.10;99.90;;;;;;5073877;28;20193;-77
2020/12/15 03:59:00;;;;;;;2.92;0.55;;;11.70;99.90;;;;;;5074671;28;20220;-75
2020/12/15 04:01:26;;;;;;;0.75;0.75;;;11.70;99.90;;;;;;5074672;28;20186;-76
2020/12/15 04:03:51;;;;;;;1.20;0.75;;;11.90;99.90;;;;;;5056467;28;20246;-76
2020/12/15 04:06:17;;;;;;;2.53;1.08;;;11.80;99.90;;;;;;5074519;28;20232;-76
2020/12/15 04:08:42;;;;;;;0.75;0.75;;;11.90;99.90;;;;;;5074478;28;20162;-75
2020/12/15 04:11:08;;;;;;;1.38;1.27;;;11.90;99.90;;;;;;5074445;28;20496;-77
2020/12/15 04:13:34;;;;;;;0.63;0.63;;;11.80;99.90;;;;;;5074293;28;20166;-76
2020/12/15 04:15:59;;;;;;;0.63;0.50;;;11.90;99.90;;;;;;5074346;28;20178;-75
2020/12/15 04:18:25;;;;;;;0.20;0.20;;;11.90;99.90;;;;;;5074283;28;20691;-76
2020/12/15 04:20:51;;;;;;;0.57;0.57;;;11.80;99.90;;;;;;5056319;28;20220;-76
2020/12/15 04:23:18;;;;;;;0.52;0.52;;;11.90;99.90;;;;;;5074051;28;20190;-76
2020/12/15 04:25:55;;;;;;;0.82;0.82;;;11.90;99.90;;;;;;5074088;28;20181;-76
2020/12/15 04:28:21;;;;;;;2.08;0.52;;;11.90;99.90;;;;;;5073857;28;20564;-76
2020/12/15 04:30:47;;;;;;;0.30;0.30;;;12.00;99.90;;;;;;5074167;28;20146;-76
2020/12/15 04:33:13;;;;;;;0.43;0.38;;;12.00;99.90;;;;;;5073701;28;20301;-78
2020/12/15 04:35:39;;;;;;;0.35;0.35;;;11.80;99.90;;;;;;5073760;28;20676;-76
2020/12/15 04:38:05;;;;;;;0.57;0.57;;;11.80;99.90;;;;;;5055730;28;20185;-76
2020/12/15 04:40:35;;;;;;;0.20;0.20;;;12.00;99.90;;;;;;5055723;28;20579;-75
2020/12/15 04:43:01;;;;;;;2.03;1.48;;;12.10;99.90;;;;;;5073685;28;20210;-75
2020/12/15 04:45:28;;;;;;;0.90;0.57;;;12.10;99.90;;;;;;5073705;28;20182;-76
2020/12/15 04:48:02;;;;;;;0.40;0.40;;;11.90;99.90;;;;;;5074096;28;20181;-76
2020/12/15 04:50:34;;;;;;;0.47;0.47;;;11.80;99.90;;;;;;5073673;28;20147;-75
2020/12/15 04:53:25;;;;;;;0.55;0.55;;;11.90;99.90;;;;;;5073467;28;20204;-75
2020/12/15 04:55:54;;;;;;;0.20;0.20;;;11.90;99.90;;;;;;5055506;28;20175;-75
2020/12/15 04:58:21;;;;;;;5.78;2.50;;;12.00;99.90;;;;;;5073257;28;20170;-75
2020/12/15 05:00:48;;;;;;;1.58;0.55;;;12.20;99.90;;;;;;5073418;28;20238;-76
2020/12/15 05:03:20;;;;;;;0.98;0.80;;;12.10;99.90;;;;;;5073397;28;20236;-75
2020/12/15 05:05:49;;;;;;;0.40;0.40;;;12.10;99.90;;;;;;5073375;28;20190;-75
2020/12/15 05:08:15;;;;;;;0.35;0.30;;;12.30;99.90;;;;;;5073072;28;20162;-76
2020/12/15 05:10:41;;;;;;;1.05;0.95;;;12.00;99.90;;;;;;5073387;28;20241;-75
2020/12/15 05:13:06;;;;;;;1.65;0.63;;;12.00;99.90;;;;;;5073099;28;20562;-75
2020/12/15 05:15:33;;;;;;;1.00;0.57;;;12.10;99.90;;;;;;5073150;28;20569;-75
2020/12/15 05:18:05;;;;;;;0.17;0.17;;;12.10;99.90;;;;;;5073104;28;20239;-77
2020/12/15 05:20:33;;;;;;;3.42;0.88;;;12.10;99.90;;;;;;5055156;28;20170;-75
2020/12/15 05:22:59;;;;;;;0.30;0.30;;;12.10;99.90;;;;;;5073124;28;20194;-75
2020/12/15 05:25:30;;;;;;;0.20;0.20;;;12.00;99.90;;;;;;5073091;28;20182;-75
2020/12/15 05:28:00;;;;;;;6.32;0.52;;;12.10;99.90;;;;;;5073117;28;20637;-75
2020/12/15 05:30:29;;;;;;;0.47;0.47;;;12.20;99.90;;;;;;5072639;28;20649;-75
2020/12/15 05:33:00;;;;;;;0.10;0.10;;;12.30;99.90;;;;;;5072817;28;20229;-75
2020/12/15 05:35:29;;;;;;;0.90;0.90;;;12.20;99.90;;;;;;5072775;28;20190;-75
2020/12/15 05:38:01;;;;;;;0.63;0.63;;;12.20;99.90;;;;;;5073164;28;20163;-75
2020/12/15 05:40:27;;;;;;;0.50;0.50;;;12.30;99.90;;;;;;5072767;28;20155;-76
2020/12/15 05:43:02;;;;;;;0.25;0.25;;;12.40;99.90;;;;;;5072703;28;20205;-75
2020/12/15 05:45:31;;;;;;;1.77;1.23;;;12.20;99.90;;;;;;5072859;28;20573;-75
2020/12/15 05:48:08;;;;;;;0.82;0.80;;;12.20;99.90;;;;;;5073199;28;20564;-75
2020/12/15 05:50:38;;;;;;;0.55;0.55;;;12.10;99.90;;;;;;5072840;28;20513;-76
2020/12/15 05:53:06;;;;;;;0.57;0.45;;;12.10;99.90;;;;;;5072756;28;20166;-76
2020/12/15 05:55:32;;;;;;;1.20;0.93;;;12.10;99.90;;;;;;5072875;28;20186;-75
2020/12/15 05:58:00;;;;;;;0.65;0.65;;;12.20;99.90;;;;;;5072690;28;20249;-75
2020/12/15 06:00:28;;;;;;;0.20;0.20;;;12.20;99.90;;;;;;5072693;28;20213;-75
2020/12/15 06:03:01;;;;;;;0.50;0.50;;;12.10;99.90;;;;;;5072392;28;20198;-76
2020/12/15 06:05:34;;;;;;;0.60;0.60;;;12.20;99.90;;;;;;5072405;28;20240;-76
2020/12/15 06:08:02;;;;;;;0.20;0.20;;;12.00;99.90;;;;;;5054668;28;20170;-77
2020/12/15 06:10:29;;;;;;;0.52;0.52;;;12.00;99.90;;;;;;5073011;28;20513;-77
2020/12/15 06:13:00;;;;;;;0.63;0.63;;;12.00;99.90;;;;;;5054591;28;20174;-77
2020/12/15 06:15:27;;;;;;;0.45;0.28;;;12.00;99.90;;;;;;5072296;28;20197;-76
2020/12/15 06:17:58;;;;;;;0.40;0.40;;;11.90;99.90;;;;;;5072516;28;20191;-75
2020/12/15 06:20:32;;;;;;;0.57;0.40;;;11.90;99.90;;;;;;5073861;28;20625;-75
2020/12/15 06:22:58;;;;;;;0.82;0.73;;;11.80;99.90;;;;;;5076455;28;20232;-76
2020/12/15 06:25:28;;;;;;;0.38;0.38;;;12.00;99.90;;;;;;5076258;28;20680;-76
2020/12/15 06:28:07;;;;;;;0.22;0.22;;;12.30;99.90;;;;;;5076196;28;20203;-77
2020/12/15 06:30:35;;;;;;;0.45;0.43;;;12.40;99.90;;;;;;5076168;28;20166;-76
2020/12/15 06:33:05;;;;;;;30.15;0.80;;;12.10;99.90;;;;;;5057667;28;20640;-76
2020/12/15 06:35:31;;;;;;;1.08;1.08;;;12.10;99.90;;;;;;5075755;28;20263;-76
2020/12/15 06:37:58;;;;;;;0.40;0.40;;;12.10;99.90;;;;;;5057677;28;20158;-76
2020/12/15 06:40:24;;;;;;;0.20;0.20;;;12.00;99.90;;;;;;5075758;28;20166;-76
2020/12/15 06:42:54;;;;;;;0.32;0.32;;;12.00;99.90;;;;;;5075853;28;20190;-76
2020/12/15 06:45:25;;;;;;;0.63;0.63;;;12.10;99.90;;;;;;5075364;28;20179;-74
2020/12/15 06:48:03;;;;;;;0.32;0.32;;;12.10;99.90;;;;;;5057842;28;20257;-75
2020/12/15 06:50:44;;;;;;;0.10;0.10;;;12.20;99.90;;;;;;5075905;28;20169;-75
2020/12/15 06:53:11;;;;;;;0.57;0.57;;;12.20;99.90;;;;;;5075370;28;20166;-77
2020/12/15 06:55:37;;;;;;;3.72;1.42;;;12.30;99.90;;;;;;5075079;28;20187;-76
2020/12/15 06:58:03;;;;;;;0.47;0.30;;;12.30;99.90;;;;;;5075408;28;20163;-75
2020/12/15 07:00:40;;;;;;;0.20;0.20;;;12.20;99.90;;;;;;5041083;28;20174;-76
2020/12/15 07:03:07;;;;;;;17.67;0.75;;;11.90;99.90;;;;;;5075162;28;20205;-76
2020/12/15 07:05:34;;;;;;;0.30;0.30;;;12.00;99.90;;;;;;5075522;28;20583;-77
2020/12/15 07:08:05;;;;;;;0.57;0.40;;;12.00;99.90;;;;;;5075195;28;20159;-76
2020/12/15 07:10:31;;;;;;;0.22;0.22;;;12.10;99.90;;;;;;5075210;28;20245;-75
2020/12/15 07:12:59;;;;;;;0.13;0.13;;;12.30;99.90;;;;;;5075000;28;20201;-76
2020/12/15 07:15:27;;;;;;;0.20;0.20;;;12.30;99.90;;;;;;5075226;28;20665;-77
2020/12/15 07:17:53;;;;;;;0.20;0.20;;;12.10;99.90;;;;;;5075141;28;20174;-75
2020/12/15 07:20:20;;;;;;;0.40;0.40;;;12.10;99.90;;;;;;5074732;28;20186;-76
2020/12/15 07:22:46;;;;;;;0.35;0.35;;;12.00;99.90;;;;;;5074881;28;20183;-76
2020/12/15 07:25:13;;;;;;;0.52;0.40;;;11.90;99.90;;;;;;5057000;28;20641;-76
2020/12/15 07:27:40;;;;;;;0.20;0.20;;;12.00;99.90;;;;;;5074961;28;20159;-76
2020/12/15 07:30:18;;;;;;;0.20;0.20;;;12.10;99.90;;;;;;5074679;28;20605;-75
2020/12/15 07:32:45;;;;;;;0.20;0.20;;;12.00;99.90;;;;;;5073366;28;20163;-76
2020/12/15 07:35:25;;;;;;;0.60;0.60;;;11.90;99.90;;;;;;5053151;28;20230;-76
2020/12/15 07:37:54;;;;;;;0.20;0.20;;;11.90;99.90;;;;;;5054663;28;20680;-76
2020/12/15 07:40:20;;;;;;;0.38;0.38;;;11.90;99.90;;;;;;5054504;28;20167;-77
2020/12/15 07:42:56;;;;;;;0.32;0.32;;;12.00;99.90;;;;;;5054484;28;20195;-75
2020/12/15 07:45:24;;;;;;;0.28;0.28;;;12.10;99.90;;;;;;5054258;28;20186;-76
2020/12/15 07:47:51;;;;;;;0.20;0.20;;;12.10;99.90;;;;;;5047540;28;20187;-75
2020/12/15 07:50:29;;;;;;;0.35;0.35;;;12.00;99.90;;;;;;5052639;28;20167;-76
2020/12/15 07:52:56;;;;;;;1.42;1.33;;;12.00;99.90;;;;;;5054601;28;20227;-77
2020/12/15 07:55:23;;;;;;;0.98;0.98;;;12.20;99.90;;;;;;5054649;28;20183;-76
2020/12/15 07:57:49;;;;;;;0.30;0.30;;;12.20;99.90;;;;;;5054433;28;20163;-77
2020/12/15 08:00:21;;;;;;;0.45;0.45;;;12.20;99.90;;;;;;5054733;28;20194;-76
2020/12/15 08:02:48;;;;;;;6.25;0.68;;;12.20;99.90;;;;;;5054473;28;20183;-75
2020/12/15 08:05:23;;;;;;;0.20;0.20;;;12.40;99.90;;;;;;5052963;28;20191;-76
2020/12/15 08:07:57;;;;;;;2.28;1.20;;;12.40;99.90;;;;;;5054377;28;20189;-75
2020/12/15 08:10:32;;;;;;;0.20;0.20;;;12.40;99.90;;;;;;5053197;28;20517;-76
2020/12/15 08:13:05;;;;;;;2.08;0.60;;;12.10;99.90;;;;;;5054346;28;20158;-77
2020/12/15 08:15:37;;;;;;;1.15;1.10;;;12.00;99.90;;;;;;5052466;28;20266;-77
2020/12/15 08:18:06;;;;;;;0.47;0.47;;;12.10;99.90;;;;;;5053011;28;20193;-77
2020/12/15 08:20:34;;;;;;;0.73;0.73;;;12.30;99.90;;;;;;5054254;28;20159;-76
2020/12/15 08:23:08;;;;;;;1.27;0.73;;;12.40;99.90;;;;;;5052500;28;20195;-76
2020/12/15 08:25:36;;;;;;;2.05;0.52;;;12.40;99.90;;;;;;5054064;28;20286;-77
2020/12/15 08:28:21;;;;;;;0.73;0.73;;;12.20;99.90;;;;;;5053849;28;20630;-77
2020/12/15 08:31:09;;;;;;;0.22;0.22;;;12.30;99.90;;;;;;5053874;28;20202;-77
2020/12/15 08:33:35;;;;;;;0.68;0.60;;;12.50;99.90;;;;;;5059543;28;20222;-76
2020/12/15 08:36:01;;;;;;;0.63;0.60;;;12.60;99.90;;;;;;5073750;28;20178;-77
2020/12/15 08:38:27;;;;;;;5.30;0.93;;;12.70;99.90;;;;;;5073804;28;20171;-78
2020/12/15 08:40:54;;;;;;;0.32;0.32;;;12.50;99.90;;;;;;5073691;28;20212;-76
2020/12/15 08:43:21;;;;;;;1.42;0.60;;;12.60;99.90;;;;;;5073253;28;20605;-82
2020/12/15 08:45:47;;;;;;;2.25;0.40;;;12.80;99.90;;;;;;5073545;28;20673;-78
2020/12/15 08:48:24;;;;;;;0.40;0.40;;;12.50;99.90;;;;;;5073692;28;20254;-82
2020/12/15 08:50:50;;;;;;;0.28;0.28;;;12.50;99.90;;;;;;5073649;28;20622;-79
2020/12/15 08:53:17;;;;;;;0.47;0.47;;;12.60;99.90;;;;;;5073555;28;20170;-82
2020/12/15 08:55:47;;;;;;;0.40;0.38;;;12.10;99.90;;;;;;5073599;28;20182;-81
2020/12/15 08:58:14;;;;;;;0.40;0.40;;;12.20;99.90;;;;;;5067127;28;21023;-78
2020/12/15 09:00:42;;;;;;;0.60;0.60;;;12.20;99.90;;;;;;5067059;28;20155;-78
2020/12/15 09:03:09;;;;;;;0.28;0.28;;;12.30;99.90;;;;;;5073321;28;20507;-77
2020/12/15 09:05:48;;;;;;;1.20;1.13;;;12.40;99.90;;;;;;5073140;28;20197;-78
2020/12/15 09:08:14;;;;;;;0.55;0.55;;;12.50;99.90;;;;;;5073103;28;20166;-78
2020/12/15 09:10:40;;;;;;;1.17;1.08;;;12.30;99.90;;;;;;5072618;28;20163;-76
2020/12/15 09:13:06;;;;;;;0.60;0.60;;;12.40;99.90;;;;;;5073100;28;20169;-78
2020/12/15 09:15:32;;;;;;;0.70;0.70;;;12.50;99.90;;;;;;5073038;28;20629;-76
2020/12/15 09:17:58;;;;;;;2.28;1.00;;;12.50;99.90;;;;;;5073163;28;20193;-77
2020/12/15 09:20:27;;;;;;;7.30;1.33;;;12.40;99.90;;;;;;5073004;28;20745;-76
2020/12/15 09:22:53;;;;;;;0.43;0.43;;;12.40;99.90;;;;;;5073117;28;20205;-77
2020/12/15 09:25:19;;;;;;;0.90;0.90;;;12.60;99.90;;;;;;5073343;28;20190;-78
2020/12/15 09:27:46;;;;;;;0.28;0.28;;;12.50;99.90;;;;;;5072573;28;20161;-77
2020/12/15 09:30:16;;;;;;;0.88;0.88;;;12.10;99.90;;;;;;5054886;28;20175;-76
2020/12/15 09:32:42;;;;;;;0.52;0.52;;;12.30;99.90;;;;;;5072679;28;20170;-76
2020/12/15 09:35:09;;;;;;;1.38;1.33;;;12.50;99.90;;;;;;5054686;28;20226;-76
2020/12/15 09:37:35;;;;;;;16.95;1.15;;;12.40;99.90;;;;;;5072273;28;20158;-78
2020/12/15 09:40:04;;;;;;;0.55;0.55;;;12.50;99.90;;;;;;5054736;28;20503;-77
2020/12/15 09:42:31;;;;;;;0.73;0.70;;;12.50;99.90;;;;;;5072595;28;20173;-78
2020/12/15 09:44:56;;;;;;;0.90;0.73;;;12.40;99.90;;;;;;5054674;28;20229;-82
2020/12/15 09:47:22;;;;;;;11.45;0.98;;;12.30;99.90;;;;;;5054964;28;20186;-82
2020/12/15 09:49:47;;;;;;;0.45;0.45;;;12.40;99.90;;;;;;5072911;28;20181;-77
2020/12/15 09:52:13;;;;;;;0.70;0.70;;;12.50;99.90;;;;;;5072574;28;20652;-77
2020/12/15 09:54:39;;;;;;;0.80;0.60;;;12.80;99.90;;;;;;5072761;28;20236;-78
2020/12/15 09:57:06;;;;;;;1.38;1.30;;;12.80;99.90;;;;;;5076917;28;20150;-76
2020/12/15 09:59:32;;;;;;;2.72;1.98;;;12.90;99.90;;;;;;5076379;28;20211;-77
2020/12/15 10:01:58;;;;;;;0.90;0.43;;;12.70;99.90;;;;;;5076630;28;20174;-78
2020/12/15 10:04:24;;;;;;;1.38;1.27;;;12.40;99.90;;;;;;5077186;28;20225;-79
2020/12/15 10:06:49;;;;;;;1.35;0.88;;;12.40;99.90;;;;;;5076675;28;20167;-79
2020/12/15 10:09:15;;;;;;;0.95;0.95;;;12.50;99.90;;;;;;5076472;28;20158;-79
2020/12/15 10:11:44;;;;;;;3.50;0.77;;;12.60;99.90;;;;;;5076527;28;20218;-79
2020/12/15 10:14:10;;;;;;;0.70;0.70;;;12.50;99.90;;;;;;5076463;28;20228;-79
2020/12/15 10:16:36;;;;;;;0.32;0.32;;;12.40;99.90;;;;;;5059683;28;20237;-79
2020/12/15 10:19:02;;;;;;;1.95;1.63;;;12.40;99.90;;;;;;5083428;28;20166;-78
2020/12/15 10:21:28;;;;;;;8.52;1.63;;;12.40;99.90;;;;;;5078842;28;20159;-78
2020/12/15 10:23:53;;;;;;;0.80;0.80;;;12.30;99.90;;;;;;5058608;28;20213;-81
2020/12/15 10:26:20;;;;;;;0.82;0.82;;;12.40;99.90;;;;;;5076541;28;20158;-80
2020/12/15 10:28:46;;;;;;;2.78;2.22;;;12.40;99.90;;;;;;5059634;28;20170;-81
2020/12/15 10:31:12;;;;;;;0.60;0.60;;;12.50;99.90;;;;;;5058010;28;20648;-78
2020/12/15 10:33:37;;;;;;;1.35;1.30;;;12.30;99.90;;;;;;5075340;28;20218;-78
2020/12/15 10:36:04;;;;;;;0.57;0.47;;;12.30;99.90;;;;;;5075997;28;20198;-78
2020/12/15 10:38:30;;;;;;;1.92;1.65;;;12.30;99.90;;;;;;5075847;28;20159;-79
2020/12/15 10:40:57;;;;;;;1.20;0.73;;;12.40;99.90;;;;;;5076027;28;20155;-78
2020/12/15 10:43:26;;;;;;;1.58;1.50;;;12.40;99.90;;;;;;5075662;28;20202;-77
2020/12/15 10:45:52;;;;;;;0.70;0.70;;;12.50;99.90;;;;;;5075941;28;20159;-78
2020/12/15 10:48:17;;;;;;;1.90;1.25;;;12.30;99.90;;;;;;5075744;28;20177;-77
2020/12/15 10:50:43;;;;;;;1.05;1.05;;;12.30;99.90;;;;;;5075919;28;20163;-80
2020/12/15 10:53:10;;;;;;;2.42;1.38;;;12.30;99.90;;;;;;5058364;28;20170;-77
2020/12/15 10:55:39;;;;;;;0.60;0.60;;;12.30;99.90;;;;;;5075998;28;20192;-78
2020/12/15 10:58:05;;;;;;;1.00;1.00;;;12.30;99.90;;;;;;5075851;28;20633;-76
2020/12/15 11:00:31;;;;;;;1.05;0.95;;;12.50;99.90;;;;;;5075636;28;20173;-76
2020/12/15 11:02:57;;;;;;;31.20;1.25;;;12.50;99.90;;;;;;5075752;28;20201;-77
2020/12/15 11:05:23;;;;;;;0.73;0.73;;;12.60;99.90;;;;;;5075175;28;20519;-78
2020/12/15 11:07:48;;;;;;;3.33;1.17;;;12.60;99.90;;;;;;5075065;28;20161;-77
2020/12/15 11:10:14;;;;;;;2.55;1.02;;;12.60;99.90;;;;;;5075481;28;20227;-78
2020/12/15 11:12:40;;;;;;;1.40;0.70;;;12.70;99.90;;;;;;5075421;28;20215;-78
2020/12/15 11:15:06;;;;;;;1.40;1.17;;;12.70;99.90;;;;;;5075066;28;20189;-79
2020/12/15 11:17:31;;;;;;;1.85;1.00;;;12.70;99.90;;;;;;5074543;28;20569;-78
2020/12/15 11:19:57;;;;;;;0.77;0.77;;;12.80;99.90;;;;;;5059565;28;20224;-78
2020/12/15 11:22:23;;;;;;;0.95;0.93;;;12.90;99.90;;;;;;5075100;28;20182;-79
2020/12/15 11:24:48;;;;;;;0.47;0.47;;;13.00;99.90;;;;;;5075113;28;20272;-77
2020/12/15 11:27:15;;;;;;;1.25;1.15;;;12.90;99.90;;;;;;5075201;28;20163;-78
2020/12/15 11:29:41;;;;;;;3.65;1.50;;;12.60;99.90;;;;;;5075136;28;20569;-77
2020/12/15 11:32:07;;;;;;;0.90;0.90;;;12.50;99.90;;;;;;5074957;28;20220;-77
2020/12/15 11:34:32;;;;;;;1.63;1.38;;;12.60;99.90;;;;;;5074826;28;20264;-86
2020/12/15 11:36:58;;;;;;;1.83;1.73;;;12.80;99.90;;;;;;5065717;28;20179;-76
2020/12/15 11:39:24;;;;;;;3.92;1.27;;;13.00;99.90;;;;;;5054370;28;20167;-76
2020/12/15 11:41:50;;;;;;;1.17;1.08;;;12.90;99.90;;;;;;5054887;28;20170;-76
2020/12/15 11:44:18;;;;;;;1.55;0.90;;;12.70;99.90;;;;;;5054480;28;20211;-77
2020/12/15 11:46:46;;;;;;;0.65;0.55;;;12.50;99.90;;;;;;5054665;28;20171;-77
2020/12/15 11:49:13;;;;;;;1.17;1.00;;;12.50;99.90;;;;;;5036900;28;20262;-77
2020/12/15 11:51:38;;;;;;;0.75;0.75;;;12.50;99.90;;;;;;5054777;28;20187;-78
2020/12/15 11:54:04;;;;;;;0.50;0.50;;;12.50;99.90;;;;;;5054628;28;20198;-77
2020/12/15 11:56:30;;;;;;;5.15;1.75;;;12.40;99.90;;;;;;5054409;28;20622;-79
2020/12/15 11:58:55;;;;;;;1.02;0.98;;;12.20;99.90;;;;;;5036719;28;20171;-77
2020/12/15 12:01:21;;;;;;;0.65;0.65;;;12.20;99.90;;;;;;5054107;28;20174;-76
2020/12/15 12:03:46;;;;;;;1.08;1.08;;;12.20;99.90;;;;;;5054339;28;20678;-77
2020/12/15 12:06:12;;;;;;;1.67;1.40;;;12.30;99.90;;;;;;5054614;28;20171;-75
2020/12/15 12:08:38;;;;;;;1.02;0.73;;;12.50;99.90;;;;;;5054295;28;20200;-75
2020/12/15 12:11:03;;;;;;;1.85;1.15;;;12.70;99.90;;;;;;5054407;28;20160;-80
2020/12/15 12:13:30;;;;;;;1.63;1.52;;;12.70;99.90;;;;;;5054435;28;20250;-79
2020/12/15 12:15:55;;;;;;;1.17;0.90;;;12.70;99.90;;;;;;5054288;28;20234;-81
2020/12/15 12:18:21;;;;;;;0.70;0.70;;;12.80;99.90;;;;;;5053744;28;20206;-77
2020/12/15 12:20:47;;;;;;;2.28;1.75;;;12.90;99.90;;;;;;5054223;28;20155;-79
2020/12/15 12:23:12;;;;;;;1.30;1.20;;;12.90;99.90;;;;;;5036227;28;20191;-81
2020/12/15 12:25:38;;;;;;;0.95;0.88;;;12.80;99.90;;;;;;5053944;28;20240;-82
2020/12/15 12:28:04;;;;;;;0.80;0.80;;;12.60;99.90;;;;;;5035989;28;20163;-81
2020/12/15 12:30:29;;;;;;;0.75;0.75;;;12.80;99.90;;;;;;5054080;28;20694;-82
2020/12/15 12:32:55;;;;;;;0.70;0.70;;;12.90;99.90;;;;;;5053697;28;20167;-81
2020/12/15 12:35:20;;;;;;;0.80;0.80;;;13.00;99.90;;;;;;5053724;28;20199;-83
2020/12/15 12:37:46;;;;;;;14.15;1.65;;;13.00;99.90;;;;;;5035843;28;20171;-82
2020/12/15 12:40:13;;;;;;;1.17;1.17;;;13.00;99.90;;;;;;5053707;28;20614;-82
2020/12/15 12:42:39;;;;;;;0.90;0.90;;;13.00;99.90;;;;;;5035737;28;20681;-79
2020/12/15 12:45:05;;;;;;;3.72;1.02;;;13.20;99.90;;;;;;5053328;28;20187;-80